createdAt,value
2022-08-26T00:02:41.054Z,1.25
2022-08-26T00:05:28.590Z,1.30
2022-08-26T00:08:16.759Z,1.45
2022-08-26T00:11:04.660Z,2.00
2022-08-26T00:13:51.735Z,1.13
2022-08-26T00:16:41.016Z,1.25
2022-08-26T00:19:14.520Z,1.33
2022-08-26T00:21:41.561Z,1.10
2022-08-26T00:24:08.311Z,0.93
2022-08-26T00:26:35.038Z,0.82
2022-08-26T00:29:01.934Z,1.10
2022-08-26T00:31:31.232Z,1.50
2022-08-26T00:33:59.437Z,1.48
2022-08-26T00:36:29.830Z,1.40
2022-08-26T00:38:58.130Z,1.10
2022-08-26T00:41:24.921Z,1.17
2022-08-26T00:43:53.432Z,0.98
2022-08-26T00:46:50.967Z,1.10
2022-08-26T00:49:45.030Z,1.35
2022-08-26T00:52:32.347Z,1.38
2022-08-26T00:55:41.294Z,0.93
2022-08-26T00:58:31.812Z,0.80
2022-08-26T01:01:19.335Z,1.67
2022-08-26T01:04:13.923Z,1.33
2022-08-26T01:07:02.161Z,0.65
2022-08-26T01:09:49.720Z,1.00
2022-08-26T01:12:53.635Z,0.80
2022-08-26T01:15:47.905Z,1.10
2022-08-26T01:18:36.038Z,1.13
2022-08-26T01:22:03.870Z,0.70
2022-08-26T01:24:51.087Z,0.60
2022-08-26T01:27:38.813Z,0.70
2022-08-26T01:30:28.145Z,0.70
2022-08-26T01:33:19.493Z,1.13
2022-08-26T01:40:14.085Z,1.20
2022-08-26T01:51:18.688Z,0.98
2022-08-26T01:58:37.150Z,0.90
2022-08-26T02:01:04.515Z,0.90
2022-08-26T02:03:59.072Z,1.00
2022-08-26T02:06:25.959Z,1.55
2022-08-26T02:08:55.612Z,0.70
2022-08-26T02:11:40.575Z,0.70
2022-08-26T02:14:16.290Z,0.68
2022-08-26T02:16:47.278Z,0.60
2022-08-26T02:19:18.186Z,0.85
2022-08-26T02:21:51.180Z,1.17
2022-08-26T02:24:27.318Z,0.80
2022-08-26T02:26:56.019Z,0.88
2022-08-26T02:29:27.838Z,0.98
2022-08-26T02:34:31.328Z,1.08
2022-08-26T02:37:06.285Z,1.30
2022-08-26T02:39:36.703Z,0.75
2022-08-26T02:42:05.502Z,0.70
2022-08-26T02:44:32.951Z,0.85
2022-08-26T02:47:01.077Z,0.93
2022-08-26T02:49:30.557Z,0.68
2022-08-26T02:51:57.948Z,0.63
2022-08-26T02:54:29.023Z,1.33
2022-08-26T02:56:56.465Z,0.75
2022-08-26T02:59:24.252Z,0.85
2022-08-26T03:02:42.174Z,0.90
2022-08-26T03:05:29.319Z,1.02
2022-08-26T03:08:14.395Z,0.80
2022-08-26T03:10:41.322Z,0.95
2022-08-26T03:13:08.384Z,0.88
2022-08-26T03:15:36.352Z,0.85
2022-08-26T03:18:04.972Z,1.10
2022-08-26T03:20:32.164Z,0.65
2022-08-26T03:22:59.034Z,0.70
2022-08-26T03:29:37.399Z,0.90
2022-08-26T03:32:19.240Z,0.70
2022-08-26T03:34:47.110Z,0.85
2022-08-26T03:37:14.271Z,0.60
2022-08-26T03:39:41.786Z,1.10
2022-08-26T03:42:08.688Z,1.13
2022-08-26T03:44:37.818Z,0.70
2022-08-26T03:47:08.938Z,0.73
2022-08-26T03:57:37.227Z,0.80
2022-08-26T04:01:06.209Z,0.60
2022-08-26T04:03:52.708Z,0.60
2022-08-26T04:06:19.528Z,0.80
2022-08-26T04:08:46.368Z,0.47
2022-08-26T04:11:19.782Z,0.70
2022-08-26T04:13:49.722Z,0.57
2022-08-26T04:16:18.189Z,0.90
2022-08-26T04:18:46.762Z,0.77
2022-08-26T04:21:15.395Z,1.15
2022-08-26T04:28:10.703Z,0.93
2022-08-26T04:30:40.775Z,0.70
2022-08-26T04:33:32.425Z,1.48
2022-08-26T04:36:02.247Z,1.50
2022-08-26T04:39:06.341Z,1.65
2022-08-26T04:41:33.909Z,1.40
2022-08-26T04:44:13.847Z,1.70
2022-08-26T04:46:43.878Z,1.70
2022-08-26T04:49:35.097Z,2.22
2022-08-26T04:52:03.885Z,1.15
2022-08-26T04:55:12.227Z,2.50
2022-08-26T04:57:40.785Z,1.13
2022-08-26T05:00:12.288Z,1.45
2022-08-26T05:03:27.494Z,1.63
2022-08-26T05:05:58.459Z,2.00
2022-08-26T05:09:07.261Z,1.20
2022-08-26T05:11:34.262Z,1.42
2022-08-26T05:14:02.376Z,0.90
2022-08-26T05:31:52.803Z,0.73
2022-08-26T05:34:23.237Z,1.08
2022-08-26T05:36:52.713Z,0.98
2022-08-26T05:39:21.502Z,0.52
2022-08-26T05:41:48.231Z,0.80
2022-08-26T05:44:17.487Z,0.70
2022-08-26T05:46:45.692Z,0.88
2022-08-26T05:49:14.542Z,0.90
2022-08-26T05:51:45.292Z,1.00
2022-08-26T05:54:13.111Z,0.80
2022-08-26T05:56:40.078Z,0.93
2022-08-26T05:59:14.537Z,0.82
2022-08-26T06:01:43.799Z,0.80
2022-08-26T06:04:12.025Z,0.63
2022-08-26T06:06:43.072Z,0.55
2022-08-26T06:09:12.127Z,0.98
2022-08-26T06:11:39.797Z,0.63
2022-08-26T06:14:07.998Z,0.28
2022-08-26T06:16:38.731Z,0.40
2022-08-26T06:19:10.614Z,0.57
2022-08-26T06:21:40.509Z,0.25
2022-08-26T06:24:30.481Z,0.20
2022-08-26T06:27:03.298Z,0.20
2022-08-26T06:29:33.845Z,0.25
2022-08-26T06:32:02.765Z,0.30
2022-08-26T06:34:30.327Z,0.32
2022-08-26T06:37:01.223Z,0.35
2022-08-26T06:39:30.853Z,0.30
2022-08-26T06:42:02.724Z,0.65
2022-08-26T06:44:30.441Z,0.20
2022-08-26T06:46:57.362Z,0.20
2022-08-26T06:49:26.560Z,0.20
2022-08-26T06:52:00.183Z,0.20
2022-08-26T06:54:31.832Z,0.20
2022-08-26T06:56:59.161Z,0.20
2022-08-26T06:59:26.211Z,0.30
2022-08-26T07:01:54.857Z,0.28
2022-08-26T07:04:23.248Z,0.10
2022-08-26T07:06:53.349Z,0.20
2022-08-26T07:09:23.290Z,0.17
2022-08-26T07:11:51.554Z,0.10
2022-08-26T07:14:19.304Z,0.35
2022-08-26T07:16:49.234Z,0.30
2022-08-26T07:19:31.240Z,0.30
2022-08-26T07:22:03.504Z,0.20
2022-08-26T07:24:35.341Z,0.30
2022-08-26T07:31:15.397Z,0.65
2022-08-26T07:33:44.345Z,0.40
2022-08-26T07:36:13.399Z,0.30
2022-08-26T07:38:41.795Z,0.40
2022-08-26T07:41:09.128Z,0.35
2022-08-26T07:43:37.574Z,0.30
2022-08-26T07:46:07.238Z,0.20
2022-08-26T07:48:36.500Z,0.28
2022-08-26T07:51:06.094Z,0.13
2022-08-26T07:53:34.890Z,0.30
2022-08-26T08:00:16.174Z,0.20
2022-08-26T08:03:05.848Z,0.30
2022-08-26T08:06:47.339Z,0.10
2022-08-26T08:09:16.038Z,0.30
2022-08-26T08:12:37.239Z,0.20
2022-08-26T08:19:39.628Z,0.20
2022-08-26T08:23:08.477Z,0.45
2022-08-26T08:29:43.607Z,0.30
2022-08-26T08:40:45.855Z,0.60
2022-08-26T08:47:57.120Z,0.80
2022-08-26T08:50:42.182Z,1.00
2022-08-26T08:53:18.245Z,1.45
2022-08-26T08:59:47.669Z,0.60
2022-08-26T09:02:29.492Z,0.50
2022-08-26T09:05:34.055Z,0.85
2022-08-26T09:08:11.893Z,0.70
2022-08-26T09:10:47.218Z,0.57
2022-08-26T09:13:25.255Z,0.20
2022-08-26T09:16:09.930Z,0.38
2022-08-26T09:19:11.271Z,0.22
2022-08-26T09:21:38.462Z,0.28
2022-08-26T09:24:06.985Z,0.50
2022-08-26T09:34:20.016Z,0.17
2022-08-26T09:43:33.675Z,0.40
2022-08-26T09:50:36.616Z,0.28
2022-08-26T10:05:19.353Z,0.70
2022-08-26T10:07:50.183Z,0.28
2022-08-26T10:10:53.311Z,0.20
2022-08-26T10:21:02.793Z,0.10
2022-08-26T10:23:56.265Z,0.20
2022-08-26T10:31:00.850Z,0.45
2022-08-26T10:33:27.786Z,0.47
2022-08-26T10:37:14.181Z,0.35
2022-08-26T10:48:12.566Z,0.20
2022-08-26T10:51:02.306Z,0.40
2022-08-26T10:58:26.701Z,0.50
2022-08-26T11:05:26.137Z,1.50
2022-08-26T11:08:20.545Z,0.20
2022-08-26T11:15:53.750Z,0.38
2022-08-26T11:18:42.801Z,0.30
2022-08-26T11:25:30.900Z,0.10
2022-08-26T11:28:05.585Z,0.82
2022-08-26T11:30:57.725Z,0.95
2022-08-26T11:34:02.662Z,0.52
2022-08-26T11:36:47.872Z,1.30
2022-08-26T11:39:20.601Z,0.60
2022-08-26T11:41:52.646Z,0.88
2022-08-26T11:44:26.049Z,2.60
2022-08-26T11:46:59.737Z,0.65
2022-08-26T11:49:28.527Z,0.38
2022-08-26T11:55:43.495Z,2.63
2022-08-26T11:58:31.468Z,0.40
2022-08-26T12:10:07.908Z,0.50
2022-08-26T12:12:58.850Z,1.50
2022-08-26T12:15:53.503Z,0.90
2022-08-26T12:22:34.689Z,0.50
2022-08-26T12:25:10.215Z,0.90
2022-08-26T12:27:45.570Z,0.93
2022-08-26T12:34:44.183Z,1.40
2022-08-26T12:37:35.147Z,0.95
2022-08-26T12:44:37.924Z,0.80
2022-08-26T12:47:32.752Z,0.90
2022-08-26T12:50:47.926Z,1.10
2022-08-26T12:53:16.684Z,1.27
2022-08-26T12:55:50.486Z,0.77
2022-08-26T13:01:58.103Z,0.60
2022-08-26T13:04:46.266Z,2.08
2022-08-26T13:07:33.328Z,1.05
2022-08-26T13:14:38.678Z,0.50
2022-08-26T13:17:05.484Z,0.40
2022-08-26T13:23:24.262Z,0.68
2022-08-26T13:29:32.688Z,0.68
2022-08-26T13:32:00.268Z,0.82
2022-08-26T13:34:27.722Z,0.50
2022-08-26T13:37:45.544Z,1.70
2022-08-26T13:43:58.165Z,0.70
2022-08-26T13:50:17.651Z,0.50
2022-08-26T13:52:44.413Z,0.45
2022-08-26T13:55:11.202Z,0.88
2022-08-26T13:57:38.583Z,1.00
2022-08-26T14:00:06.404Z,0.40
2022-08-26T14:02:38.058Z,0.60
2022-08-26T14:05:05.719Z,0.75
2022-08-26T14:07:32.531Z,1.02
2022-08-26T14:09:59.416Z,1.27
2022-08-26T14:12:26.211Z,1.38
2022-08-26T14:19:05.831Z,0.20
2022-08-26T14:21:53.113Z,0.70
2022-08-26T14:24:40.231Z,0.40
2022-08-26T14:27:59.689Z,0.35
2022-08-26T14:34:20.394Z,0.73
2022-08-26T14:41:54.070Z,1.55
2022-08-26T14:44:44.541Z,0.80
2022-08-26T14:47:31.672Z,2.10
2022-08-26T14:50:25.474Z,0.73
2022-08-26T14:53:31.099Z,0.50
2022-08-26T14:59:50.604Z,0.50
2022-08-26T15:02:32.549Z,1.50
2022-08-26T15:20:59.628Z,1.15
2022-08-26T15:23:27.053Z,1.23
2022-08-26T15:25:54.714Z,1.35
2022-08-26T15:28:22.356Z,0.60
2022-08-26T15:30:51.277Z,0.52
2022-08-26T15:37:08.802Z,0.65
2022-08-26T15:43:29.152Z,0.60
2022-08-26T15:50:07.638Z,0.52
2022-08-26T15:52:34.424Z,1.02
2022-08-26T16:06:28.352Z,0.95
2022-08-26T16:08:56.261Z,0.80
2022-08-26T16:11:24.220Z,0.88
2022-08-26T16:13:51.339Z,0.77
2022-08-26T16:16:19.580Z,1.30
2022-08-26T16:18:46.366Z,0.60
2022-08-26T16:21:19.487Z,0.75
2022-08-26T16:23:47.296Z,0.80
2022-08-26T16:26:17.812Z,0.70
2022-08-26T16:41:16.679Z,0.45
2022-08-26T16:43:43.452Z,0.77
2022-08-26T16:46:11.396Z,0.73
2022-08-26T16:48:39.624Z,0.50
2022-08-26T16:55:15.858Z,2.13
2022-08-26T16:57:44.471Z,1.13
2022-08-26T17:00:17.114Z,1.90
2022-08-26T17:05:12.150Z,2.28
2022-08-26T17:07:39.617Z,0.93
2022-08-26T17:10:07.744Z,1.15
2022-08-26T17:12:36.613Z,1.10
2022-08-26T17:15:06.575Z,0.68
2022-08-26T17:25:26.160Z,1.00
2022-08-26T17:28:13.728Z,0.80
2022-08-26T17:31:01.621Z,0.77
2022-08-26T17:33:53.358Z,0.60
2022-08-26T17:40:24.534Z,3.25
2022-08-26T17:43:12.487Z,0.75
2022-08-26T17:46:04.529Z,0.68
2022-08-26T17:48:55.047Z,0.70
2022-08-26T17:55:45.149Z,1.20
2022-08-26T17:58:32.359Z,1.02
2022-08-26T18:01:26.142Z,0.88
2022-08-26T18:04:14.889Z,0.60
2022-08-26T18:07:02.054Z,0.70
2022-08-26T18:09:49.231Z,0.80
2022-08-26T18:12:36.994Z,0.60
2022-08-26T18:15:24.177Z,0.90
2022-08-26T18:22:12.201Z,0.75
2022-08-26T18:25:05.408Z,2.00
2022-08-26T18:27:52.528Z,2.10
2022-08-26T18:30:41.876Z,1.13
2022-08-26T18:33:29.022Z,1.55
2022-08-26T18:36:22.308Z,1.42
2022-08-26T18:39:11.500Z,2.20
2022-08-26T18:41:58.940Z,2.47
2022-08-26T18:44:46.028Z,0.95
2022-08-26T18:54:59.599Z,1.42
2022-08-26T18:57:27.483Z,1.42
2022-08-26T18:59:54.202Z,0.80
2022-08-26T19:03:18.927Z,0.68
2022-08-26T19:05:46.566Z,1.00
2022-08-26T19:12:43.936Z,0.95
2022-08-26T19:15:11.192Z,0.75
2022-08-26T19:17:37.994Z,0.88
2022-08-26T19:20:05.658Z,0.57
2022-08-26T19:22:32.492Z,1.10
2022-08-26T19:24:59.222Z,1.00
2022-08-26T19:27:25.947Z,1.02
2022-08-26T19:29:52.750Z,0.80
2022-08-26T19:32:24.295Z,0.57
2022-08-26T19:38:42.949Z,1.15
2022-08-26T19:41:14.885Z,0.80
2022-08-26T19:46:21.767Z,1.00
2022-08-26T19:49:07.260Z,0.80
2022-08-26T19:55:48.541Z,1.42
2022-08-26T19:58:15.259Z,2.95
2022-08-26T20:00:53.041Z,2.70
2022-08-26T20:03:19.825Z,1.90
2022-08-26T20:05:50.631Z,2.13
2022-08-26T20:12:41.836Z,1.30
2022-08-26T20:15:11.993Z,3.10
2022-08-26T20:18:00.900Z,2.67
2022-08-26T20:20:46.542Z,3.03
2022-08-26T20:27:07.698Z,3.80
2022-08-26T20:33:15.552Z,2.30
2022-08-26T20:35:42.634Z,2.33
2022-08-26T20:38:20.846Z,2.40
2022-08-26T20:44:54.374Z,2.83
2022-08-26T20:51:12.414Z,3.90
2022-08-26T20:57:25.692Z,2.90
2022-08-26T20:59:52.430Z,2.53
2022-08-26T21:02:19.327Z,3.75
2022-08-26T21:04:46.164Z,2.80
2022-08-26T21:07:13.710Z,3.20
2022-08-26T21:09:40.654Z,3.42
2022-08-26T21:12:09.043Z,4.00
2022-08-26T21:14:36.881Z,4.00
2022-08-26T21:17:04.216Z,3.42
2022-08-26T21:19:31.096Z,2.63
2022-08-26T21:21:59.021Z,3.10
2022-08-26T21:24:25.927Z,2.78
2022-08-26T21:26:52.789Z,3.08
2022-08-26T21:29:22.065Z,2.63
2022-08-26T21:35:39.190Z,2.75
2022-08-26T21:38:05.961Z,2.60
2022-08-26T21:40:33.763Z,2.90
2022-08-26T21:43:00.653Z,2.53
2022-08-26T21:45:27.576Z,2.38
2022-08-26T21:47:54.587Z,2.20
2022-08-26T21:50:21.507Z,3.00
2022-08-26T21:52:48.387Z,2.50
2022-08-26T21:55:15.265Z,2.35
2022-08-26T21:57:42.008Z,2.80
2022-08-26T22:00:10.279Z,2.92
2022-08-26T22:02:37.241Z,3.28
2022-08-26T22:05:04.438Z,4.35
2022-08-26T22:07:31.415Z,4.30
2022-08-26T22:09:58.180Z,4.57
2022-08-26T22:12:25.430Z,4.40
2022-08-26T22:14:52.185Z,3.78
2022-08-26T22:17:18.927Z,3.38
2022-08-26T22:19:46.715Z,3.38
2022-08-26T22:22:14.554Z,3.40
2022-08-26T22:24:43.311Z,4.43
2022-08-26T22:27:12.058Z,4.55
2022-08-26T22:29:39.204Z,3.97
2022-08-26T22:32:06.270Z,4.35
2022-08-26T22:34:33.804Z,4.60
2022-08-26T22:37:02.873Z,3.63
2022-08-26T22:39:29.646Z,3.40
2022-08-26T22:41:57.276Z,4.10
2022-08-26T22:44:25.497Z,4.53
2022-08-26T22:46:57.076Z,10.43
2022-08-26T22:49:24.653Z,20.08
2022-08-26T22:51:51.443Z,24.40
2022-08-26T22:54:18.489Z,21.70
2022-08-26T22:56:45.518Z,22.35
2022-08-26T22:59:13.181Z,17.63
2022-08-26T23:01:43.625Z,14.02
2022-08-26T23:04:11.679Z,9.30
2022-08-26T23:06:40.911Z,7.68
2022-08-26T23:09:08.359Z,6.55
2022-08-26T23:11:35.711Z,8.23
2022-08-26T23:18:00.735Z,12.23
2022-08-26T23:20:28.757Z,12.00
2022-08-26T23:22:56.368Z,12.20
2022-08-26T23:25:23.266Z,11.48
2022-08-26T23:27:52.052Z,10.80
2022-08-26T23:30:22.058Z,10.13
2022-08-26T23:32:49.322Z,9.90
2022-08-26T23:35:21.531Z,10.98
2022-08-26T23:37:52.579Z,10.55
2022-08-26T23:40:25.614Z,12.20
2022-08-26T23:42:54.893Z,12.80
2022-08-26T23:45:22.797Z,16.05
2022-08-26T23:47:52.576Z,14.98
2022-08-26T23:50:22.237Z,15.82
2022-08-26T23:53:08.716Z,15.95
2022-08-26T23:55:38.047Z,15.98
2022-08-26T23:58:06.345Z,14.93
